Terminal Aerodrome Forecast
Issued by NWS

Current Version | Previous Version | Text Only | Print | Product List | Glossary On
Versions: 1 2 3 4 5 6 7 8 9 10 11 12 13 14 15 16 17 18 19 20
000
FTUS43 KIND 262300
TAFLAF
TAF
KLAF 262323Z 2700/2724 03007KT P6SM SCT020 OVC100
     FM270200 02007KT P6SM BKN015 OVC080
     FM271200 32009KT P6SM OVC015
     FM272000 30012KT P6SM OVC025
      AMD LTD TO CLD VIS AND WIND 2702/2714=

USA.gov is the U.S. government's official web portal to all federal, state and local government web resources and services.